Nenana, Alaska
Current Conditions -  °F | °C
As of 7:53 PM on Friday 24 Oct 2014 (Local Time) from PANN Reporting Station
Light Snow Light Snow  
Wind Chill: 23°   Ceiling: 6500
Heat Index: 23°   Visibility: 5mi
Dew Point: 21°   Wind: 0mph
Humidity: 92%   Direction: NA
Pressure: 29.94"   Gusts: NA
Location:  64.56°N, 149.1°W
Report Text: PANN 250353Z AUTO 00000KT 5SM -SN BR OVC065 M05/M06 A2994 RMK AO2 SLP148 P0001 T10501061 TSNO
Loading
Personal Weather Stations






























Interactive Weather Map
Tropical Storm Tracking
New forecast layout! Learn more

10-Day Weather Forecast

Advertisements
Track Severe Weather on mobile